LFOB/BVA METAR and TAF weather

Enter ICAO airport designator
Station Type Date Time Source
LFOB METAR 2019/05/26 02:00 UTC NOAA

LFOB 260200Z AUTO VRB02KT CAVOK 10/09 Q1018 BECMG 2000 BR OVC005


Station Type Date Time Source
LFOB Decoded METAR 2019/05/26 02:00 UTC NOAA

Beauvais, France (LFOB) 49-28N 002-07E 111M
May 25, 2019 - 10:00 PM EDT / 2019.05.26 0200 UTC
Wind: Variable at 2 MPH (2 KT):0
Visibility: greater than 7 mile(s):0
Temperature: 50 F (10 C)
Dew Point: 48 F (9 C)
Relative Humidity: 93%
Pressure (altimeter): 30.06 in. Hg (1018 hPa)
ob: LFOB 260200Z AUTO VRB02KT CAVOK 10/09 Q1018 BECMG 2000 BR OVC005
cycle: 2

Station Type Date Time Source
LFOB TAF 2019/05/25 18:46 UTC NOAA

TAF LFOB 251700Z 2518/2618 35012KT CAVOK
BECMG 2519/2521 VRB02KT
BECMG 2523/2602 2000 BR
BECMG 2603/2605 OVC005 PROB40 2604/2607 0600 FG OVC002
BECMG 2607/2609 26010KT 9999 NSW SCT016

Example: see airport list